sensor_id;sensor_type;location;lat;lon;timestamp;pressure;altitude;pressure_sealevel;temperature;humidity
36932;BME280;22847;42.654;23.370;2022-10-31T00:01:52;94993.13;;;16.74;46.02
36932;BME280;22847;42.654;23.370;2022-10-31T00:04:17;95150.69;;;17.63;46.89
36932;BME280;22847;42.654;23.370;2022-10-31T00:06:43;95147.06;;;17.64;47.04
36932;BME280;22847;42.654;23.370;2022-10-31T00:09:09;95134.22;;;17.61;46.41
36932;BME280;22847;42.654;23.370;2022-10-31T00:11:34;95157.66;;;17.56;47.20
36932;BME280;22847;42.654;23.370;2022-10-31T00:14:00;95127.53;;;17.50;46.57
36932;BME280;22847;42.654;23.370;2022-10-31T00:16:26;95109.53;;;17.54;46.85
36932;BME280;22847;42.654;23.370;2022-10-31T00:18:54;94928.16;;;16.35;47.89
36932;BME280;22847;42.654;23.370;2022-10-31T00:21:21;95100.84;;;17.45;46.89
36932;BME280;22847;42.654;23.370;2022-10-31T00:23:46;95055.56;;;17.19;47.08
36932;BME280;22847;42.654;23.370;2022-10-31T00:26:12;95112.13;;;17.62;47.62
36932;BME280;22847;42.654;23.370;2022-10-31T00:28:37;95166.19;;;17.58;46.62
36932;BME280;22847;42.654;23.370;2022-10-31T00:31:05;95128.81;;;17.54;46.70
36932;BME280;22847;42.654;23.370;2022-10-31T00:33:33;95133.31;;;17.46;46.82
36932;BME280;22847;42.654;23.370;2022-10-31T00:35:58;95131.97;;;17.50;48.35
36932;BME280;22847;42.654;23.370;2022-10-31T00:38:24;95104.63;;;17.51;46.99
36932;BME280;22847;42.654;23.370;2022-10-31T00:40:49;95125.00;;;17.57;47.61
36932;BME280;22847;42.654;23.370;2022-10-31T00:43:15;95117.06;;;17.65;46.33
36932;BME280;22847;42.654;23.370;2022-10-31T00:45:43;95038.19;;;17.10;46.70
36932;BME280;22847;42.654;23.370;2022-10-31T00:48:09;95101.03;;;17.44;47.61
36932;BME280;22847;42.654;23.370;2022-10-31T00:50:35;95118.78;;;17.50;47.54
36932;BME280;22847;42.654;23.370;2022-10-31T00:53:00;95111.50;;;17.52;48.32
36932;BME280;22847;42.654;23.370;2022-10-31T00:55:26;95120.25;;;17.60;48.32
36932;BME280;22847;42.654;23.370;2022-10-31T00:57:51;95129.28;;;17.58;47.29
36932;BME280;22847;42.654;23.370;2022-10-31T01:00:17;95091.31;;;17.44;47.59
36932;BME280;22847;42.654;23.370;2022-10-31T01:02:42;95062.59;;;17.26;48.08
36932;BME280;22847;42.654;23.370;2022-10-31T01:05:08;95087.75;;;17.37;48.15
36932;BME280;22847;42.654;23.370;2022-10-31T01:07:38;95147.72;;;17.58;48.55
36932;BME280;22847;42.654;23.370;2022-10-31T01:10:05;95067.44;;;16.92;47.71
36932;BME280;22847;42.654;23.370;2022-10-31T01:12:36;95122.34;;;17.57;48.45
36932;BME280;22847;42.654;23.370;2022-10-31T01:15:02;95072.78;;;17.29;48.32
36932;BME280;22847;42.654;23.370;2022-10-31T01:17:27;94965.09;;;16.58;49.43
36932;BME280;22847;42.654;23.370;2022-10-31T01:19:53;95154.31;;;17.62;49.18
36932;BME280;22847;42.654;23.370;2022-10-31T01:22:18;95093.34;;;17.34;48.29
36932;BME280;22847;42.654;23.370;2022-10-31T01:24:44;95090.53;;;17.35;47.56
36932;BME280;22847;42.654;23.370;2022-10-31T01:27:09;95120.91;;;17.54;47.24
36932;BME280;22847;42.654;23.370;2022-10-31T01:29:34;95086.47;;;17.25;47.75
36932;BME280;22847;42.654;23.370;2022-10-31T01:32:00;95001.59;;;16.53;48.43
36932;BME280;22847;42.654;23.370;2022-10-31T01:34:25;95148.22;;;17.30;47.66
36932;BME280;22847;42.654;23.370;2022-10-31T01:36:51;94951.47;;;16.07;48.74
36932;BME280;22847;42.654;23.370;2022-10-31T01:39:17;95153.81;;;17.05;48.75
36932;BME280;22847;42.654;23.370;2022-10-31T01:41:47;95128.34;;;16.97;48.90
36932;BME280;22847;42.654;23.370;2022-10-31T01:46:46;95092.75;;;16.62;48.46
36932;BME280;22847;42.654;23.370;2022-10-31T01:49:30;95014.16;;;16.04;49.35
36932;BME280;22847;42.654;23.370;2022-10-31T01:52:02;95150.75;;;16.85;49.37
36932;BME280;22847;42.654;23.370;2022-10-31T01:54:32;95146.41;;;16.53;49.69
36932;BME280;22847;42.654;23.370;2022-10-31T01:57:02;95108.91;;;16.51;49.76
36932;BME280;22847;42.654;23.370;2022-10-31T01:59:30;95097.09;;;16.39;49.77
36932;BME280;22847;42.654;23.370;2022-10-31T02:01:57;95155.72;;;16.88;49.30
36932;BME280;22847;42.654;23.370;2022-10-31T02:04:24;95112.84;;;16.63;49.24
36932;BME280;22847;42.654;23.370;2022-10-31T02:06:54;95145.16;;;16.88;49.37
36932;BME280;22847;42.654;23.370;2022-10-31T02:09:22;95076.25;;;16.21;49.48
36932;BME280;22847;42.654;23.370;2022-10-31T02:11:52;95141.56;;;16.81;49.44
36932;BME280;22847;42.654;23.370;2022-10-31T02:14:25;95166.63;;;16.69;49.74
36932;BME280;22847;42.654;23.370;2022-10-31T02:16:51;95073.44;;;16.23;50.36
36932;BME280;22847;42.654;23.370;2022-10-31T02:33:52;95107.31;;;16.26;50.66
36932;BME280;22847;42.654;23.370;2022-10-31T02:42:02;95161.72;;;16.49;51.89
36932;BME280;22847;42.654;23.370;2022-10-31T02:44:43;95183.28;;;16.45;51.90
36932;BME280;22847;42.654;23.370;2022-10-31T02:47:15;95170.28;;;16.35;51.34
36932;BME280;22847;42.654;23.370;2022-10-31T02:49:53;95174.41;;;16.46;51.15
36932;BME280;22847;42.654;23.370;2022-10-31T02:52:24;95170.59;;;16.57;50.96
36932;BME280;22847;42.654;23.370;2022-10-31T02:54:51;95167.50;;;16.61;51.00
36932;BME280;22847;42.654;23.370;2022-10-31T02:57:28;95199.38;;;16.66;51.57
36932;BME280;22847;42.654;23.370;2022-10-31T03:00:00;95126.06;;;16.39;51.14
36932;BME280;22847;42.654;23.370;2022-10-31T03:15:48;95150.25;;;16.26;51.07
36932;BME280;22847;42.654;23.370;2022-10-31T03:18:39;95173.91;;;16.59;51.38
36932;BME280;22847;42.654;23.370;2022-10-31T03:21:09;95167.81;;;16.58;51.58
36932;BME280;22847;42.654;23.370;2022-10-31T03:23:37;95195.44;;;16.54;51.26
36932;BME280;22847;42.654;23.370;2022-10-31T03:26:06;95176.38;;;16.52;51.58
36932;BME280;22847;42.654;23.370;2022-10-31T03:29:06;94968.59;;;15.24;51.38
36932;BME280;22847;42.654;23.370;2022-10-31T03:31:34;95009.66;;;15.17;52.62
36932;BME280;22847;42.654;23.370;2022-10-31T03:34:02;95154.56;;;15.95;52.13
36932;BME280;22847;42.654;23.370;2022-10-31T03:36:30;95177.72;;;16.07;52.32
36932;BME280;22847;42.654;23.370;2022-10-31T03:38:58;95174.28;;;16.15;51.98
36932;BME280;22847;42.654;23.370;2022-10-31T03:41:28;95188.25;;;16.24;52.70
36932;BME280;22847;42.654;23.370;2022-10-31T03:44:08;95216.84;;;16.35;52.17
36932;BME280;22847;42.654;23.370;2022-10-31T03:46:35;95175.25;;;16.22;52.34
36932;BME280;22847;42.654;23.370;2022-10-31T03:49:01;95200.25;;;16.42;52.05
36932;BME280;22847;42.654;23.370;2022-10-31T03:52:02;95200.75;;;16.38;51.95
36932;BME280;22847;42.654;23.370;2022-10-31T03:54:38;95185.94;;;16.29;51.81
36932;BME280;22847;42.654;23.370;2022-10-31T03:57:18;95020.50;;;15.38;51.94
36932;BME280;22847;42.654;23.370;2022-10-31T03:59:51;95192.66;;;16.39;52.24
36932;BME280;22847;42.654;23.370;2022-10-31T04:02:22;95205.19;;;16.37;52.61
36932;BME280;22847;42.654;23.370;2022-10-31T04:04:50;95243.16;;;16.35;53.23
36932;BME280;22847;42.654;23.370;2022-10-31T04:07:17;95208.81;;;16.28;52.66
36932;BME280;22847;42.654;23.370;2022-10-31T04:09:45;95248.78;;;16.32;52.29
36932;BME280;22847;42.654;23.370;2022-10-31T04:12:14;95236.28;;;16.18;52.63
36932;BME280;22847;42.654;23.370;2022-10-31T04:14:43;95238.72;;;15.87;53.17
36932;BME280;22847;42.654;23.370;2022-10-31T04:17:13;95215.06;;;15.79;53.66
36932;BME280;22847;42.654;23.370;2022-10-31T04:19:39;95217.13;;;15.51;54.42
36932;BME280;22847;42.654;23.370;2022-10-31T04:22:05;95245.78;;;15.70;53.98
36932;BME280;22847;42.654;23.370;2022-10-31T04:24:30;95215.88;;;15.71;53.99
36932;BME280;22847;42.654;23.370;2022-10-31T04:26:55;95116.88;;;15.22;53.75
36932;BME280;22847;42.654;23.370;2022-10-31T04:29:21;95186.09;;;15.54;53.53
36932;BME280;22847;42.654;23.370;2022-10-31T04:31:46;95198.59;;;15.60;53.47
36932;BME280;22847;42.654;23.370;2022-10-31T04:34:12;95225.75;;;15.93;53.41
36932;BME280;22847;42.654;23.370;2022-10-31T04:36:37;95166.06;;;15.61;53.57
36932;BME280;22847;42.654;23.370;2022-10-31T04:39:03;95241.69;;;15.92;53.46
36932;BME280;22847;42.654;23.370;2022-10-31T04:41:28;94976.75;;;14.40;53.46
36932;BME280;22847;42.654;23.370;2022-10-31T04:43:53;95222.31;;;15.93;53.81
36932;BME280;22847;42.654;23.370;2022-10-31T04:46:19;95083.84;;;14.95;53.60
36932;BME280;22847;42.654;23.370;2022-10-31T04:48:44;95237.41;;;15.75;53.58
36932;BME280;22847;42.654;23.370;2022-10-31T04:51:10;95209.53;;;15.40;54.86
36932;BME280;22847;42.654;23.370;2022-10-31T04:53:35;95173.16;;;15.11;55.05
36932;BME280;22847;42.654;23.370;2022-10-31T04:56:01;95244.38;;;15.50;55.36
36932;BME280;22847;42.654;23.370;2022-10-31T04:58:27;95246.81;;;15.43;55.54
36932;BME280;22847;42.654;23.370;2022-10-31T05:00:54;95240.44;;;15.04;56.49
36932;BME280;22847;42.654;23.370;2022-10-31T05:03:20;95210.16;;;15.26;55.25
36932;BME280;22847;42.654;23.370;2022-10-31T05:05:45;95217.81;;;15.53;54.97
36932;BME280;22847;42.654;23.370;2022-10-31T05:08:11;94997.81;;;14.30;54.58
36932;BME280;22847;42.654;23.370;2022-10-31T05:10:36;95199.91;;;15.56;54.61
36932;BME280;22847;42.654;23.370;2022-10-31T05:13:03;95199.56;;;15.59;54.31
36932;BME280;22847;42.654;23.370;2022-10-31T05:15:29;95266.69;;;15.96;54.32
36932;BME280;22847;42.654;23.370;2022-10-31T05:17:55;95222.31;;;15.85;53.90
36932;BME280;22847;42.654;23.370;2022-10-31T05:20:24;95078.19;;;14.82;54.81
36932;BME280;22847;42.654;23.370;2022-10-31T05:22:52;95257.97;;;15.87;54.57
36932;BME280;22847;42.654;23.370;2022-10-31T05:25:19;95243.00;;;15.80;54.29
36932;BME280;22847;42.654;23.370;2022-10-31T05:27:46;95038.38;;;14.36;54.51
36932;BME280;22847;42.654;23.370;2022-10-31T05:30:16;95295.47;;;15.47;55.61
36932;BME280;22847;42.654;23.370;2022-10-31T05:32:46;95228.81;;;15.14;55.73
36932;BME280;22847;42.654;23.370;2022-10-31T05:35:34;95185.41;;;14.94;55.45
36932;BME280;22847;42.654;23.370;2022-10-31T05:37:59;95094.38;;;14.27;55.95
36932;BME280;22847;42.654;23.370;2022-10-31T05:40:26;95228.16;;;15.12;55.94
36932;BME280;22847;42.654;23.370;2022-10-31T05:42:53;95299.47;;;15.59;55.40
36932;BME280;22847;42.654;23.370;2022-10-31T05:45:20;95108.28;;;14.27;55.85
36932;BME280;22847;42.654;23.370;2022-10-31T05:47:57;95272.34;;;15.59;55.47
36932;BME280;22847;42.654;23.370;2022-10-31T05:50:24;95239.00;;;15.51;55.13
36932;BME280;22847;42.654;23.370;2022-10-31T05:53:00;95064.63;;;14.36;55.61
36932;BME280;22847;42.654;23.370;2022-10-31T05:55:26;95268.94;;;15.75;55.30
36932;BME280;22847;42.654;23.370;2022-10-31T05:57:53;95255.25;;;15.55;55.39
36932;BME280;22847;42.654;23.370;2022-10-31T06:00:19;95228.19;;;15.79;54.39
36932;BME280;22847;42.654;23.370;2022-10-31T06:02:45;95285.03;;;17.64;51.38
36932;BME280;22847;42.654;23.370;2022-10-31T06:05:10;95306.69;;;20.35;45.37
36932;BME280;22847;42.654;23.370;2022-10-31T06:07:36;95283.84;;;23.19;39.45
36932;BME280;22847;42.654;23.370;2022-10-31T06:10:04;95295.28;;;25.54;35.18
36932;BME280;22847;42.654;23.370;2022-10-31T06:12:30;95288.34;;;27.55;31.85
36932;BME280;22847;42.654;23.370;2022-10-31T06:14:55;95246.47;;;28.91;28.91
36932;BME280;22847;42.654;23.370;2022-10-31T06:17:20;95273.84;;;30.20;27.09
36932;BME280;22847;42.654;23.370;2022-10-31T06:19:46;95280.16;;;31.48;25.54
36932;BME280;22847;42.654;23.370;2022-10-31T06:22:11;95141.84;;;31.47;24.29
36932;BME280;22847;42.654;23.370;2022-10-31T06:24:38;95306.72;;;32.95;23.11
36932;BME280;22847;42.654;23.370;2022-10-31T06:27:03;95288.38;;;33.38;22.67
36932;BME280;22847;42.654;23.370;2022-10-31T06:29:29;95311.88;;;33.78;22.14
36932;BME280;22847;42.654;23.370;2022-10-31T06:31:54;95309.13;;;33.88;24.75
36932;BME280;22847;42.654;23.370;2022-10-31T06:34:20;95309.88;;;34.19;21.25
36932;BME280;22847;42.654;23.370;2022-10-31T06:36:46;95281.22;;;34.18;21.17
36932;BME280;22847;42.654;23.370;2022-10-31T06:39:11;95269.56;;;34.12;21.39
36932;BME280;22847;42.654;23.370;2022-10-31T06:41:37;95136.75;;;32.89;21.30
36932;BME280;22847;42.654;23.370;2022-10-31T06:44:05;95294.06;;;33.26;22.27
36932;BME280;22847;42.654;23.370;2022-10-31T06:46:30;95295.38;;;32.93;22.54
36932;BME280;22847;42.654;23.370;2022-10-31T06:48:56;95203.03;;;31.99;22.96
36932;BME280;22847;42.654;23.370;2022-10-31T06:51:21;95287.59;;;32.14;23.10
36932;BME280;22847;42.654;23.370;2022-10-31T06:53:46;95296.06;;;31.86;23.72
36932;BME280;22847;42.654;23.370;2022-10-31T06:56:12;95328.25;;;31.24;24.66
36932;BME280;22847;42.654;23.370;2022-10-31T06:58:37;95321.53;;;30.73;24.76
36932;BME280;22847;42.654;23.370;2022-10-31T07:01:03;95324.69;;;30.65;25.11
36932;BME280;22847;42.654;23.370;2022-10-31T07:03:28;95134.94;;;29.43;26.07
36932;BME280;22847;42.654;23.370;2022-10-31T07:05:57;95296.91;;;30.37;26.05
36932;BME280;22847;42.654;23.370;2022-10-31T07:08:23;95305.47;;;29.91;25.96
36932;BME280;22847;42.654;23.370;2022-10-31T07:10:53;95302.84;;;29.24;26.53
36932;BME280;22847;42.654;23.370;2022-10-31T07:13:19;95130.41;;;27.77;27.71
36932;BME280;22847;42.654;23.370;2022-10-31T07:15:50;95258.00;;;28.46;28.04
36932;BME280;22847;42.654;23.370;2022-10-31T07:18:15;95289.94;;;28.59;28.39
36932;BME280;22847;42.654;23.370;2022-10-31T07:20:41;95279.72;;;27.53;29.14
36932;BME280;22847;42.654;23.370;2022-10-31T07:23:08;95301.38;;;27.28;29.79
36932;BME280;22847;42.654;23.370;2022-10-31T07:25:34;95127.75;;;25.91;30.66
36932;BME280;22847;42.654;23.370;2022-10-31T07:28:00;95297.97;;;26.68;31.33
36932;BME280;22847;42.654;23.370;2022-10-31T07:30:25;95116.72;;;25.57;31.29
36932;BME280;22847;42.654;23.370;2022-10-31T07:32:51;95286.44;;;26.08;31.89
36932;BME280;22847;42.654;23.370;2022-10-31T07:35:21;95131.75;;;24.79;32.66
36932;BME280;22847;42.654;23.370;2022-10-31T07:37:47;95266.63;;;25.00;33.39
36932;BME280;22847;42.654;23.370;2022-10-31T07:40:13;95155.06;;;24.09;34.26
36932;BME280;22847;42.654;23.370;2022-10-31T07:42:50;95283.97;;;24.15;35.16
36932;BME280;22847;42.654;23.370;2022-10-31T07:45:18;95281.44;;;23.88;36.16
36932;BME280;22847;42.654;23.370;2022-10-31T07:50:15;95079.66;;;22.04;36.81
36932;BME280;22847;42.654;23.370;2022-10-31T07:52:41;95081.41;;;21.38;37.81
36932;BME280;22847;42.654;23.370;2022-10-31T07:55:08;95302.63;;;22.39;38.93
36932;BME280;22847;42.654;23.370;2022-10-31T07:57:33;95255.38;;;22.14;39.82
36932;BME280;22847;42.654;23.370;2022-10-31T07:59:59;95263.22;;;22.55;39.68
36932;BME280;22847;42.654;23.370;2022-10-31T08:02:25;95256.06;;;22.95;38.69
36932;BME280;22847;42.654;23.370;2022-10-31T08:04:51;95196.97;;;22.87;37.37
36932;BME280;22847;42.654;23.370;2022-10-31T08:07:17;95128.88;;;22.59;36.80
36932;BME280;22847;42.654;23.370;2022-10-31T08:09:42;95158.69;;;22.88;37.02
36932;BME280;22847;42.654;23.370;2022-10-31T08:12:08;95299.84;;;24.03;36.55
36932;BME280;22847;42.654;23.370;2022-10-31T08:14:33;95286.59;;;23.83;36.48
36932;BME280;22847;42.654;23.370;2022-10-31T08:16:59;95264.94;;;23.60;36.96
36932;BME280;22847;42.654;23.370;2022-10-31T08:19:24;95230.00;;;23.24;37.16
36932;BME280;22847;42.654;23.370;2022-10-31T08:21:53;95283.31;;;23.81;37.18
36932;BME280;22847;42.654;23.370;2022-10-31T08:24:21;95073.22;;;22.78;36.59
36932;BME280;22847;42.654;23.370;2022-10-31T08:26:46;95268.69;;;24.04;36.10
36932;BME280;22847;42.654;23.370;2022-10-31T08:29:12;95126.88;;;23.19;35.99
36932;BME280;22847;42.654;23.370;2022-10-31T08:31:38;95283.81;;;24.16;36.13
36932;BME280;22847;42.654;23.370;2022-10-31T08:34:03;95310.00;;;24.26;35.90
36932;BME280;22847;42.654;23.370;2022-10-31T08:36:29;95278.13;;;24.44;35.93
36932;BME280;22847;42.654;23.370;2022-10-31T08:38:55;95275.84;;;24.72;35.53
36932;BME280;22847;42.654;23.370;2022-10-31T08:41:20;95312.91;;;24.87;35.26
36932;BME280;22847;42.654;23.370;2022-10-31T08:43:46;95248.22;;;24.67;34.97
36932;BME280;22847;42.654;23.370;2022-10-31T08:46:12;95309.22;;;24.88;35.28
36932;BME280;22847;42.654;23.370;2022-10-31T08:48:37;95290.41;;;25.01;35.03
36932;BME280;22847;42.654;23.370;2022-10-31T08:51:03;95308.06;;;25.02;34.75
36932;BME280;22847;42.654;23.370;2022-10-31T08:53:28;95278.00;;;24.88;35.03
36932;BME280;22847;42.654;23.370;2022-10-31T08:55:55;95298.78;;;24.80;35.37
36932;BME280;22847;42.654;23.370;2022-10-31T08:58:21;95284.66;;;24.73;35.53
36932;BME280;22847;42.654;23.370;2022-10-31T09:00:49;95130.34;;;23.71;35.66
36932;BME280;22847;42.654;23.370;2022-10-31T09:03:21;95100.75;;;23.47;36.04
36932;BME280;22847;42.654;23.370;2022-10-31T09:05:46;95278.66;;;24.77;36.20
36932;BME280;22847;42.654;23.370;2022-10-31T09:08:12;95103.31;;;23.98;35.83
36932;BME280;22847;42.654;23.370;2022-10-31T09:13:22;95250.59;;;25.24;35.09
36932;BME280;22847;42.654;23.370;2022-10-31T09:15:49;95211.00;;;25.21;34.61
36932;BME280;22847;42.654;23.370;2022-10-31T09:18:17;95276.72;;;25.77;34.38
36932;BME280;22847;42.654;23.370;2022-10-31T09:20:44;95149.88;;;25.13;34.24
36932;BME280;22847;42.654;23.370;2022-10-31T09:23:13;95098.44;;;24.88;33.58
36932;BME280;22847;42.654;23.370;2022-10-31T09:25:39;95250.59;;;25.97;33.74
36932;BME280;22847;42.654;23.370;2022-10-31T09:28:06;95264.69;;;26.04;33.37
36932;BME280;22847;42.654;23.370;2022-10-31T09:30:33;95263.72;;;25.99;33.56
36932;BME280;22847;42.654;23.370;2022-10-31T09:33:05;95286.03;;;25.93;33.34
36932;BME280;22847;42.654;23.370;2022-10-31T09:35:31;95273.91;;;25.54;34.19
36932;BME280;22847;42.654;23.370;2022-10-31T09:38:01;95074.91;;;24.17;34.46
36932;BME280;22847;42.654;23.370;2022-10-31T09:40:40;95090.50;;;24.38;34.38
36932;BME280;22847;42.654;23.370;2022-10-31T09:51:25;95146.00;;;24.91;34.53
36932;BME280;22847;42.654;23.370;2022-10-31T09:54:06;95271.63;;;25.75;34.00
36932;BME280;22847;42.654;23.370;2022-10-31T09:56:34;94961.13;;;23.93;33.92
36932;BME280;22847;42.654;23.370;2022-10-31T09:59:03;95277.47;;;26.02;33.89
36932;BME280;22847;42.654;23.370;2022-10-31T10:01:35;95286.53;;;26.01;33.49
36932;BME280;22847;42.654;23.370;2022-10-31T10:06:49;95247.22;;;26.20;33.39
36932;BME280;22847;42.654;23.370;2022-10-31T10:09:25;95254.59;;;26.25;33.49
36932;BME280;22847;42.654;23.370;2022-10-31T10:25:38;95155.00;;;25.81;32.06
36932;BME280;22847;42.654;23.370;2022-10-31T10:30:49;95176.56;;;26.28;32.49
36932;BME280;22847;42.654;23.370;2022-10-31T10:33:20;95027.97;;;25.25;32.79
36932;BME280;22847;42.654;23.370;2022-10-31T10:35:57;95034.16;;;25.38;32.71
36932;BME280;22847;42.654;23.370;2022-10-31T10:38:36;95095.53;;;25.86;32.21
36932;BME280;22847;42.654;23.370;2022-10-31T10:41:08;95190.91;;;26.45;32.09
36932;BME280;22847;42.654;23.370;2022-10-31T10:43:36;95049.19;;;25.80;32.04
36932;BME280;22847;42.654;23.370;2022-10-31T10:49:43;95222.00;;;26.81;31.50
36932;BME280;22847;42.654;23.370;2022-10-31T10:55:06;95041.63;;;25.77;30.85
36932;BME280;22847;42.654;23.370;2022-10-31T10:57:58;95168.13;;;26.54;31.08
36932;BME280;22847;42.654;23.370;2022-10-31T11:00:38;95202.81;;;26.84;30.62
36932;BME280;22847;42.654;23.370;2022-10-31T11:03:05;95075.84;;;26.10;31.33
36932;BME280;22847;42.654;23.370;2022-10-31T11:05:44;95185.38;;;26.81;31.43
36932;BME280;22847;42.654;23.370;2022-10-31T11:08:30;95189.69;;;26.82;31.34
36932;BME280;22847;42.654;23.370;2022-10-31T11:11:02;95176.28;;;26.82;31.26
36932;BME280;22847;42.654;23.370;2022-10-31T11:13:29;95175.63;;;26.87;31.00
36932;BME280;22847;42.654;23.370;2022-10-31T11:16:02;95184.81;;;27.02;30.39
36932;BME280;22847;42.654;23.370;2022-10-31T11:18:37;95181.53;;;26.89;31.41
36932;BME280;22847;42.654;23.370;2022-10-31T11:21:05;95150.00;;;26.68;30.97
36932;BME280;22847;42.654;23.370;2022-10-31T11:23:31;95147.19;;;26.51;31.10
36932;BME280;22847;42.654;23.370;2022-10-31T11:25:59;95171.50;;;26.49;31.72
36932;BME280;22847;42.654;23.370;2022-10-31T11:28:27;95182.66;;;26.46;31.68
36932;BME280;22847;42.654;23.370;2022-10-31T11:30:57;95163.69;;;26.48;31.42
36932;BME280;22847;42.654;23.370;2022-10-31T11:35:49;95159.16;;;26.48;31.54
36932;BME280;22847;42.654;23.370;2022-10-31T11:38:20;95009.72;;;25.52;31.51
36932;BME280;22847;42.654;23.370;2022-10-31T11:41:07;95120.75;;;26.31;31.22
36932;BME280;22847;42.654;23.370;2022-10-31T11:43:34;95118.44;;;26.23;31.56
36932;BME280;22847;42.654;23.370;2022-10-31T11:46:10;95152.03;;;26.31;31.83
36932;BME280;22847;42.654;23.370;2022-10-31T11:48:37;95146.72;;;26.42;31.60
36932;BME280;22847;42.654;23.370;2022-10-31T11:51:04;95159.94;;;26.26;31.99
36932;BME280;22847;42.654;23.370;2022-10-31T11:53:33;95088.72;;;26.01;31.87
36932;BME280;22847;42.654;23.370;2022-10-31T11:56:15;95115.53;;;26.25;31.77
36932;BME280;22847;42.654;23.370;2022-10-31T11:58:41;95110.31;;;26.30;31.66
36932;BME280;22847;42.654;23.370;2022-10-31T12:01:26;95134.84;;;26.50;32.09
36932;BME280;22847;42.654;23.370;2022-10-31T12:04:09;94986.88;;;25.56;31.43
36932;BME280;22847;42.654;23.370;2022-10-31T12:06:40;95122.00;;;26.17;31.49
36932;BME280;22847;42.654;23.370;2022-10-31T12:09:27;95141.81;;;26.28;31.97
36932;BME280;22847;42.654;23.370;2022-10-31T12:17:19;95147.03;;;26.23;32.10
36932;BME280;22847;42.654;23.370;2022-10-31T12:25:55;95132.13;;;26.15;32.35
36932;BME280;22847;42.654;23.370;2022-10-31T12:37:09;95129.19;;;26.16;31.90
36932;BME280;22847;42.654;23.370;2022-10-31T12:40:02;95117.78;;;25.98;32.06
36932;BME280;22847;42.654;23.370;2022-10-31T12:58:36;94948.97;;;24.58;32.11
36932;BME280;22847;42.654;23.370;2022-10-31T13:01:11;95129.91;;;25.70;31.99
36932;BME280;22847;42.654;23.370;2022-10-31T13:06:13;95061.38;;;24.98;33.15
36932;BME280;22847;42.654;23.370;2022-10-31T13:08:51;95169.06;;;25.58;33.00
36932;BME280;22847;42.654;23.370;2022-10-31T13:11:32;95054.59;;;25.14;33.22
36932;BME280;22847;42.654;23.370;2022-10-31T13:16:33;95134.41;;;25.70;32.23
36932;BME280;22847;42.654;23.370;2022-10-31T13:19:09;94959.88;;;24.57;32.58
36932;BME280;22847;42.654;23.370;2022-10-31T13:21:52;95107.44;;;25.42;32.54
36932;BME280;22847;42.654;23.370;2022-10-31T13:25:09;95145.28;;;25.57;32.83
36932;BME280;22847;42.654;23.370;2022-10-31T13:28:02;95130.50;;;25.54;33.07
36932;BME280;22847;42.654;23.370;2022-10-31T13:35:39;95127.28;;;25.64;32.81
36932;BME280;22847;42.654;23.370;2022-10-31T13:40:56;95139.50;;;25.71;32.80
36932;BME280;22847;42.654;23.370;2022-10-31T13:46:38;95130.28;;;25.56;32.21
36932;BME280;22847;42.654;23.370;2022-10-31T13:51:47;95139.78;;;25.33;32.43
36932;BME280;22847;42.654;23.370;2022-10-31T13:54:32;94992.88;;;24.37;32.64
36932;BME280;22847;42.654;23.370;2022-10-31T13:56:58;95136.91;;;25.35;32.78
36932;BME280;22847;42.654;23.370;2022-10-31T13:59:26;95125.41;;;25.35;32.43
36932;BME280;22847;42.654;23.370;2022-10-31T14:01:58;95131.50;;;25.05;33.00
36932;BME280;22847;42.654;23.370;2022-10-31T14:04:36;95131.84;;;25.09;32.98
36932;BME280;22847;42.654;23.370;2022-10-31T14:07:13;95120.00;;;25.05;32.78
36932;BME280;22847;42.654;23.370;2022-10-31T14:09:52;95153.72;;;24.99;33.37
36932;BME280;22847;42.654;23.370;2022-10-31T14:12:38;95139.66;;;25.10;33.08
36932;BME280;22847;42.654;23.370;2022-10-31T14:17:50;95147.28;;;25.07;33.43
36932;BME280;22847;42.654;23.370;2022-10-31T14:22:42;95096.41;;;24.83;33.17
36932;BME280;22847;42.654;23.370;2022-10-31T14:27:51;95144.09;;;24.73;33.48
36932;BME280;22847;42.654;23.370;2022-10-31T14:30:23;95165.69;;;24.72;33.77
36932;BME280;22847;42.654;23.370;2022-10-31T14:32:55;95081.09;;;24.36;33.81
36932;BME280;22847;42.654;23.370;2022-10-31T14:35:27;95172.69;;;24.91;33.62
36932;BME280;22847;42.654;23.370;2022-10-31T14:38:04;95144.41;;;24.65;33.73
36932;BME280;22847;42.654;23.370;2022-10-31T14:40:42;95141.84;;;24.52;34.05
36932;BME280;22847;42.654;23.370;2022-10-31T14:51:44;95086.16;;;23.63;34.52
36932;BME280;22847;42.654;23.370;2022-10-31T14:54:23;95134.63;;;24.03;34.89
36932;BME280;22847;42.654;23.370;2022-10-31T14:56:56;95143.00;;;24.07;35.03
36932;BME280;22847;42.654;23.370;2022-10-31T14:59:30;95140.53;;;24.05;35.54
36932;BME280;22847;42.654;23.370;2022-10-31T15:02:00;95153.19;;;23.85;35.60
36932;BME280;22847;42.654;23.370;2022-10-31T15:04:28;94966.44;;;22.74;35.93
36932;BME280;22847;42.654;23.370;2022-10-31T15:07:04;95140.63;;;23.92;35.83
36932;BME280;22847;42.654;23.370;2022-10-31T15:09:32;94986.88;;;22.87;36.14
36932;BME280;22847;42.654;23.370;2022-10-31T15:11:59;95021.81;;;22.90;36.67
36932;BME280;22847;42.654;23.370;2022-10-31T15:14:30;95151.84;;;23.69;36.50
36932;BME280;22847;42.654;23.370;2022-10-31T15:17:01;95082.44;;;23.26;36.36
36932;BME280;22847;42.654;23.370;2022-10-31T15:19:29;95160.47;;;23.65;36.21
36932;BME280;22847;42.654;23.370;2022-10-31T15:21:57;95154.31;;;23.64;35.72
36932;BME280;22847;42.654;23.370;2022-10-31T15:24:31;95163.00;;;23.53;35.91
36932;BME280;22847;42.654;23.370;2022-10-31T15:26:58;95017.88;;;22.42;36.71
36932;BME280;22847;42.654;23.370;2022-10-31T15:29:25;95017.97;;;21.96;36.58
36932;BME280;22847;42.654;23.370;2022-10-31T15:31:54;95161.09;;;23.09;36.67